Time;durP1;ratioP1;P1;durP2;ratioP2;P2;SDS_P1;SDS_P2;PMS_P1;PMS_P2;Temp;Humidity;BMP_temperature;BMP_pressure;BME280_temperature;BME280_humidity;BME280_pressure;Samples;Min_cycle;Max_cycle;Signal;HPM_P1;HPM_P2
2023/12/17 00:00:15;;;;;;;;;6.75;6.00;;;;;;;;5099602;27;45579;-71
2023/12/17 00:02:40;;;;;;;;;10.00;9.25;;;;;;;;5099597;27;45298;-71
2023/12/17 00:05:06;;;;;;;;;8.75;7.50;;;;;;;;5099319;27;45967;-72
2023/12/17 00:07:31;;;;;;;;;12.75;12.75;;;;;;;;5099415;27;45364;-71
2023/12/17 00:09:57;;;;;;;;;10.25;10.25;;;;;;;;5099519;27;45471;-71
2023/12/17 00:12:22;;;;;;;;;8.25;7.25;;;;;;;;5100054;27;45495;-71
2023/12/17 00:14:47;;;;;;;;;13.00;13.00;;;;;;;;5099135;27;45191;-71
2023/12/17 00:17:13;;;;;;;;;13.75;12.25;;;;;;;;5099044;27;45345;-71
2023/12/17 00:19:38;;;;;;;;;17.00;13.00;;;;;;;;5099398;27;45261;-71
2023/12/17 00:22:03;;;;;;;;;11.25;10.50;;;;;;;;5099588;27;45309;-71
2023/12/17 00:24:29;;;;;;;;;9.00;8.25;;;;;;;;5099226;27;45523;-71
2023/12/17 00:26:57;;;;;;;;;9.00;9.00;;;;;;;;5099393;27;45484;-71
2023/12/17 00:29:22;;;;;;;;;6.00;6.00;;;;;;;;5099175;27;45254;-72
2023/12/17 00:31:48;;;;;;;;;8.50;6.00;;;;;;;;5098880;27;45786;-71
2023/12/17 00:34:13;;;;;;;;;6.00;6.00;;;;;;;;5098285;27;45340;-71
2023/12/17 00:36:38;;;;;;;;;9.00;9.00;;;;;;;;5099084;27;45412;-71
2023/12/17 00:39:04;;;;;;;;;6.50;6.00;;;;;;;;5099093;27;45340;-71
2023/12/17 00:41:31;;;;;;;;;5.25;4.75;;;;;;;;5099092;27;45262;-71
2023/12/17 00:43:56;;;;;;;;;4.75;3.25;;;;;;;;5099022;27;45500;-71
2023/12/17 00:46:22;;;;;;;;;4.25;4.00;;;;;;;;5098607;27;45425;-71
2023/12/17 00:48:47;;;;;;;;;7.00;5.50;;;;;;;;5098801;27;46003;-71
2023/12/17 00:51:13;;;;;;;;;6.00;5.00;;;;;;;;5098954;27;45318;-71
2023/12/17 00:53:38;;;;;;;;;6.00;5.00;;;;;;;;5098577;27;45276;-71
2023/12/17 00:56:03;;;;;;;;;5.75;5.25;;;;;;;;5098704;27;45410;-71
2023/12/17 00:58:29;;;;;;;;;4.50;3.75;;;;;;;;5099090;27;45531;-71
2023/12/17 01:00:54;;;;;;;;;5.00;4.00;;;;;;;;5099246;27;45316;-71
2023/12/17 01:03:19;;;;;;;;;5.00;4.25;;;;;;;;5098420;27;46076;-71
2023/12/17 01:05:45;;;;;;;;;5.25;4.50;;;;;;;;5098617;27;45252;-71
2023/12/17 01:08:10;;;;;;;;;4.75;4.50;;;;;;;;5098592;27;45194;-71
2023/12/17 01:10:36;;;;;;;;;5.25;5.25;;;;;;;;5098664;27;45471;-71
2023/12/17 01:13:01;;;;;;;;;4.75;4.75;;;;;;;;5098253;27;45909;-71
2023/12/17 01:15:26;;;;;;;;;4.00;4.00;;;;;;;;5098651;27;45219;-71
2023/12/17 01:17:52;;;;;;;;;2.00;2.00;;;;;;;;5098447;27;45225;-71
2023/12/17 01:20:18;;;;;;;;;4.25;3.50;;;;;;;;5098373;27;45422;-71
2023/12/17 01:22:43;;;;;;;;;1.75;1.75;;;;;;;;5098162;27;45431;-71
2023/12/17 01:25:08;;;;;;;;;3.75;2.00;;;;;;;;5098183;27;45405;-71
2023/12/17 01:27:34;;;;;;;;;4.00;2.00;;;;;;;;5098315;27;45231;-71
2023/12/17 01:29:59;;;;;;;;;0.00;0.00;;;;;;;;5098791;27;45304;-71
2023/12/17 01:32:25;;;;;;;;;1.50;1.50;;;;;;;;5098059;27;45959;-71
2023/12/17 01:34:50;;;;;;;;;1.50;1.25;;;;;;;;5097968;27;45431;-71
2023/12/17 01:37:16;;;;;;;;;3.50;2.00;;;;;;;;5098233;27;45834;-72
2023/12/17 01:39:41;;;;;;;;;2.25;2.00;;;;;;;;5098298;27;45409;-71
2023/12/17 01:42:06;;;;;;;;;1.75;1.75;;;;;;;;5098082;27;46173;-71
2023/12/17 01:44:32;;;;;;;;;1.50;1.50;;;;;;;;5098192;27;45316;-71
2023/12/17 01:46:57;;;;;;;;;2.50;2.00;;;;;;;;5098411;27;45376;-71
2023/12/17 01:49:23;;;;;;;;;2.00;2.00;;;;;;;;5098140;27;45322;-71
2023/12/17 01:51:49;;;;;;;;;2.00;2.00;;;;;;;;5097876;27;46033;-71
2023/12/17 01:54:15;;;;;;;;;2.00;2.00;;;;;;;;5097568;27;45463;-71
2023/12/17 01:56:40;;;;;;;;;1.75;1.75;;;;;;;;5097842;27;45464;-71
2023/12/17 01:59:06;;;;;;;;;8.75;5.50;;;;;;;;5097884;27;45227;-71
2023/12/17 02:01:31;;;;;;;;;12.75;9.75;;;;;;;;5097683;27;46105;-71
2023/12/17 02:03:57;;;;;;;;;12.25;10.50;;;;;;;;5097631;27;45456;-71
2023/12/17 02:06:22;;;;;;;;;10.00;9.75;;;;;;;;5097615;27;45405;-71
2023/12/17 02:08:47;;;;;;;;;8.00;8.00;;;;;;;;5098033;27;45325;-71
2023/12/17 02:11:13;;;;;;;;;4.75;4.50;;;;;;;;5097591;27;45328;-71
2023/12/17 02:13:38;;;;;;;;;2.00;2.00;;;;;;;;5097629;27;45474;-71
2023/12/17 02:16:04;;;;;;;;;4.50;4.00;;;;;;;;5098003;27;45431;-72
2023/12/17 02:18:29;;;;;;;;;2.00;2.00;;;;;;;;5098240;27;45856;-71
2023/12/17 02:20:54;;;;;;;;;1.75;1.75;;;;;;;;5097428;27;45347;-72
2023/12/17 02:23:20;;;;;;;;;4.25;4.00;;;;;;;;5097353;27;45454;-71
2023/12/17 02:25:45;;;;;;;;;2.00;2.00;;;;;;;;5097502;27;45433;-71
2023/12/17 02:28:11;;;;;;;;;2.00;2.00;;;;;;;;5097619;27;45300;-71
2023/12/17 02:30:36;;;;;;;;;2.00;2.00;;;;;;;;5097092;27;45938;-72
2023/12/17 02:33:02;;;;;;;;;1.00;1.00;;;;;;;;5097534;27;45495;-71
2023/12/17 02:35:27;;;;;;;;;1.00;1.00;;;;;;;;5097404;27;45419;-71
2023/12/17 02:37:52;;;;;;;;;1.00;1.00;;;;;;;;5097505;27;45424;-71
2023/12/17 02:40:18;;;;;;;;;0.25;0.25;;;;;;;;5096987;27;45480;-71
2023/12/17 02:42:43;;;;;;;;;1.00;1.00;;;;;;;;5097271;27;45302;-71
2023/12/17 02:45:09;;;;;;;;;2.00;1.00;;;;;;;;5097225;27;45457;-71
2023/12/17 02:47:35;;;;;;;;;1.00;1.00;;;;;;;;5097799;27;45480;-71
2023/12/17 02:50:00;;;;;;;;;1.00;1.00;;;;;;;;5097178;27;45827;-72
2023/12/17 02:52:26;;;;;;;;;1.25;1.25;;;;;;;;5096991;27;45385;-72
2023/12/17 02:54:51;;;;;;;;;1.50;1.50;;;;;;;;5097077;27;45507;-71
2023/12/17 02:57:17;;;;;;;;;1.00;1.00;;;;;;;;5100058;27;45234;-72
2023/12/17 02:59:42;;;;;;;;;1.00;0.25;;;;;;;;5100390;27;45957;-71
2023/12/17 03:02:07;;;;;;;;;1.00;1.00;;;;;;;;5100359;27;45211;-71
2023/12/17 03:04:33;;;;;;;;;1.25;1.00;;;;;;;;5100873;27;45278;-71
2023/12/17 03:06:58;;;;;;;;;0.00;0.00;;;;;;;;5100789;27;45277;-71
2023/12/17 03:09:24;;;;;;;;;2.00;1.00;;;;;;;;5100189;27;45453;-71
2023/12/17 03:11:49;;;;;;;;;8.00;6.00;;;;;;;;5100270;27;45428;-72
2023/12/17 03:14:14;;;;;;;;;8.00;6.00;;;;;;;;5100415;27;45504;-71
2023/12/17 03:16:42;;;;;;;;;31.50;24.50;;;;;;;;5100524;27;45413;-72
2023/12/17 03:19:08;;;;;;;;;9.25;9.00;;;;;;;;5099934;27;45571;-72
2023/12/17 03:21:33;;;;;;;;;23.25;21.25;;;;;;;;5100165;27;45463;-71
2023/12/17 03:23:58;;;;;;;;;17.75;16.00;;;;;;;;5100305;27;45721;-71
2023/12/17 03:26:24;;;;;;;;;10.25;9.50;;;;;;;;5100379;27;45293;-71
2023/12/17 03:28:49;;;;;;;;;5.75;5.50;;;;;;;;5099919;27;45965;-71
2023/12/17 03:31:15;;;;;;;;;10.25;8.25;;;;;;;;5099978;27;45313;-71
2023/12/17 03:33:44;;;;;;;;;16.25;12.00;;;;;;;;5100036;27;45566;-71
2023/12/17 03:36:14;;;;;;;;;7.00;7.00;;;;;;;;5098771;27;45404;-72
2023/12/17 03:38:40;;;;;;;;;5.25;5.25;;;;;;;;5099716;27;45519;-71
2023/12/17 03:41:05;;;;;;;;;8.00;8.00;;;;;;;;5099917;27;45473;-71
2023/12/17 03:43:31;;;;;;;;;8.00;6.00;;;;;;;;5099792;27;45418;-71
2023/12/17 03:45:56;;;;;;;;;10.00;5.25;;;;;;;;5100050;27;45198;-71
2023/12/17 03:48:21;;;;;;;;;4.00;2.00;;;;;;;;5098229;27;45436;-71
2023/12/17 03:50:47;;;;;;;;;3.50;1.25;;;;;;;;5099645;27;45206;-71
2023/12/17 03:53:12;;;;;;;;;5.00;4.25;;;;;;;;5099650;27;45236;-72
2023/12/17 03:55:37;;;;;;;;;0.50;0.50;;;;;;;;5100159;27;45240;-71
2023/12/17 03:58:03;;;;;;;;;1.25;1.25;;;;;;;;5099422;27;45877;-71
2023/12/17 04:00:29;;;;;;;;;1.00;1.00;;;;;;;;5099347;27;45500;-71
2023/12/17 04:02:54;;;;;;;;;2.00;1.00;;;;;;;;5099670;27;45213;-71
2023/12/17 04:05:19;;;;;;;;;1.00;1.00;;;;;;;;5099875;27;45473;-71
2023/12/17 04:07:45;;;;;;;;;1.00;1.00;;;;;;;;5098190;27;46043;-71
2023/12/17 04:10:10;;;;;;;;;0.00;0.00;;;;;;;;5099473;27;45534;-71
2023/12/17 04:12:35;;;;;;;;;1.00;1.00;;;;;;;;5099634;27;45367;-71
2023/12/17 04:15:01;;;;;;;;;1.00;0.00;;;;;;;;5099760;27;45407;-71
2023/12/17 04:17:26;;;;;;;;;2.00;1.00;;;;;;;;5099233;27;45473;-72
2023/12/17 04:19:52;;;;;;;;;4.00;2.00;;;;;;;;5099156;27;45476;-71
2023/12/17 04:22:17;;;;;;;;;1.00;1.00;;;;;;;;5099092;27;45281;-71
2023/12/17 04:24:42;;;;;;;;;2.00;2.00;;;;;;;;5099371;27;45355;-72
2023/12/17 04:27:08;;;;;;;;;7.00;6.25;;;;;;;;5097921;27;46275;-71
2023/12/17 04:29:33;;;;;;;;;1.00;1.00;;;;;;;;5099218;27;45329;-71
2023/12/17 04:31:58;;;;;;;;;6.00;4.00;;;;;;;;5099174;27;45475;-71
2023/12/17 04:34:24;;;;;;;;;4.75;4.00;;;;;;;;5099440;27;45405;-71
2023/12/17 04:36:49;;;;;;;;;4.25;4.25;;;;;;;;5098985;27;45968;-72
2023/12/17 04:39:14;;;;;;;;;4.25;4.25;;;;;;;;5099049;27;45482;-71
2023/12/17 04:41:40;;;;;;;;;4.75;3.50;;;;;;;;5099304;27;45451;-71
2023/12/17 04:44:07;;;;;;;;;2.50;2.00;;;;;;;;5099070;27;45507;-71
2023/12/17 04:46:33;;;;;;;;;1.00;1.00;;;;;;;;5098813;27;46063;-71
2023/12/17 04:48:58;;;;;;;;;1.50;1.00;;;;;;;;5098648;27;45265;-71
2023/12/17 04:51:25;;;;;;;;;1.25;1.25;;;;;;;;5098929;27;45446;-71
2023/12/17 04:53:50;;;;;;;;;2.00;2.00;;;;;;;;5098810;27;45413;-71
2023/12/17 04:56:16;;;;;;;;;1.00;1.00;;;;;;;;5098363;27;46040;-72
2023/12/17 04:58:41;;;;;;;;;1.75;1.50;;;;;;;;5098934;27;45475;-71
2023/12/17 05:01:07;;;;;;;;;1.50;1.00;;;;;;;;5097225;27;45323;-71
2023/12/17 05:03:32;;;;;;;;;2.00;1.00;;;;;;;;5098845;27;45629;-71
2023/12/17 05:05:57;;;;;;;;;1.25;1.25;;;;;;;;5098486;27;45486;-71
2023/12/17 05:08:23;;;;;;;;;2.00;0.75;;;;;;;;5098472;27;45539;-71
2023/12/17 05:10:48;;;;;;;;;0.00;0.00;;;;;;;;5098483;27;45862;-72
2023/12/17 05:13:14;;;;;;;;;1.00;1.00;;;;;;;;5098661;27;45376;-72
2023/12/17 05:15:39;;;;;;;;;1.00;1.00;;;;;;;;5098584;27;45995;-71
2023/12/17 05:18:05;;;;;;;;;1.00;1.00;;;;;;;;5096864;27;45310;-71
2023/12/17 05:20:30;;;;;;;;;2.00;2.00;;;;;;;;5096623;27;45811;-71
2023/12/17 05:22:56;;;;;;;;;1.00;1.00;;;;;;;;5097304;27;45567;-71
2023/12/17 05:25:21;;;;;;;;;1.00;1.00;;;;;;;;5098141;27;46004;-71
2023/12/17 05:27:46;;;;;;;;;0.00;0.00;;;;;;;;5096998;27;45279;-72
2023/12/17 05:30:12;;;;;;;;;1.50;1.00;;;;;;;;5098571;27;45284;-71
2023/12/17 05:32:37;;;;;;;;;0.00;0.00;;;;;;;;5098359;27;45467;-71
2023/12/17 05:35:03;;;;;;;;;2.00;1.00;;;;;;;;5096686;27;47543;-72
2023/12/17 05:37:29;;;;;;;;;1.00;1.00;;;;;;;;5098230;27;45301;-71
2023/12/17 05:39:55;;;;;;;;;1.75;1.75;;;;;;;;5098096;27;45288;-71
2023/12/17 05:42:20;;;;;;;;;2.50;2.00;;;;;;;;5098357;27;45459;-71
2023/12/17 05:44:45;;;;;;;;;1.00;1.00;;;;;;;;5098051;27;45957;-71
2023/12/17 05:47:11;;;;;;;;;2.00;2.00;;;;;;;;5098283;27;45309;-72
2023/12/17 05:49:37;;;;;;;;;1.00;1.00;;;;;;;;5098063;27;45502;-71
2023/12/17 05:52:02;;;;;;;;;1.25;1.00;;;;;;;;5098101;27;45388;-71
2023/12/17 05:54:28;;;;;;;;;4.00;1.25;;;;;;;;5097498;27;45564;-71
2023/12/17 05:56:53;;;;;;;;;1.00;1.00;;;;;;;;5097723;27;45425;-71
2023/12/17 05:59:19;;;;;;;;;1.00;1.00;;;;;;;;5097907;27;45444;-72
2023/12/17 06:01:44;;;;;;;;;1.25;1.00;;;;;;;;5098373;27;45628;-71
2023/12/17 06:04:09;;;;;;;;;1.00;1.00;;;;;;;;5097743;27;45311;-72
2023/12/17 06:06:35;;;;;;;;;2.00;2.00;;;;;;;;5097855;27;45351;-72
2023/12/17 06:09:00;;;;;;;;;1.75;1.75;;;;;;;;5097880;27;45227;-71
2023/12/17 06:11:25;;;;;;;;;1.50;1.25;;;;;;;;5097695;27;45277;-72
2023/12/17 06:13:51;;;;;;;;;2.00;1.25;;;;;;;;5097517;27;45327;-72
2023/12/17 06:16:16;;;;;;;;;4.00;2.00;;;;;;;;5096557;27;45501;-71
2023/12/17 06:18:42;;;;;;;;;9.00;8.00;;;;;;;;5097639;27;45305;-71
2023/12/17 06:21:07;;;;;;;;;7.00;6.25;;;;;;;;5097769;27;45413;-71
2023/12/17 06:23:33;;;;;;;;;6.00;5.00;;;;;;;;5096087;27;45507;-71
2023/12/17 06:25:58;;;;;;;;;5.00;4.75;;;;;;;;5095974;27;45492;-71
2023/12/17 06:28:24;;;;;;;;;7.25;5.00;;;;;;;;5097542;27;45297;-71
2023/12/17 06:30:50;;;;;;;;;7.00;6.25;;;;;;;;5097130;27;45553;-71
2023/12/17 06:33:15;;;;;;;;;6.25;5.75;;;;;;;;5101145;27;45970;-71
2023/12/17 06:35:40;;;;;;;;;2.50;2.50;;;;;;;;5100895;27;45399;-71
2023/12/17 06:38:06;;;;;;;;;4.50;4.50;;;;;;;;5099658;27;45254;-71
2023/12/17 06:40:32;;;;;;;;;1.00;0.25;;;;;;;;5101083;27;45380;-71
2023/12/17 06:42:57;;;;;;;;;1.00;1.00;;;;;;;;5100758;27;45952;-71
2023/12/17 06:45:23;;;;;;;;;2.00;2.00;;;;;;;;5100767;27;45442;-71
2023/12/17 06:47:49;;;;;;;;;1.50;1.50;;;;;;;;5101305;27;45251;-71
2023/12/17 06:50:14;;;;;;;;;2.00;1.00;;;;;;;;5101511;27;45458;-71
2023/12/17 06:52:40;;;;;;;;;3.00;1.25;;;;;;;;5100402;27;45329;-72
2023/12/17 06:55:06;;;;;;;;;3.50;3.50;;;;;;;;5100614;27;45233;-71
2023/12/17 06:57:31;;;;;;;;;13.25;12.00;;;;;;;;5100735;27;45278;-71
2023/12/17 06:59:57;;;;;;;;;5.75;5.50;;;;;;;;5100831;27;45554;-71
2023/12/17 07:02:22;;;;;;;;;6.25;6.25;;;;;;;;5100399;27;46221;-71
2023/12/17 07:04:47;;;;;;;;;6.50;5.00;;;;;;;;5100671;27;45366;-71
2023/12/17 07:07:13;;;;;;;;;5.00;4.75;;;;;;;;5100503;27;45379;-71
2023/12/17 07:09:38;;;;;;;;;4.00;4.00;;;;;;;;5100665;27;45317;-71
2023/12/17 07:12:04;;;;;;;;;6.25;5.00;;;;;;;;5100223;27;46010;-71
2023/12/17 07:14:29;;;;;;;;;14.25;11.75;;;;;;;;5100204;27;45257;-71
2023/12/17 07:16:54;;;;;;;;;2.75;1.25;;;;;;;;5100512;27;45735;-71
2023/12/17 07:19:20;;;;;;;;;11.50;7.75;;;;;;;;5100649;27;45332;-71
2023/12/17 07:21:45;;;;;;;;;6.00;6.00;;;;;;;;5100005;27;45462;-71
2023/12/17 07:24:10;;;;;;;;;7.50;6.00;;;;;;;;5099985;27;45338;-71
2023/12/17 07:26:36;;;;;;;;;26.00;23.00;;;;;;;;5099930;27;45441;-71
2023/12/17 07:29:01;;;;;;;;;26.25;24.25;;;;;;;;5100258;27;45300;-71
2023/12/17 07:31:26;;;;;;;;;29.00;26.50;;;;;;;;5099938;27;45565;-71
2023/12/17 07:33:52;;;;;;;;;25.00;21.00;;;;;;;;5100225;27;45178;-71
2023/12/17 07:36:17;;;;;;;;;14.00;11.75;;;;;;;;5100311;27;45415;-71
2023/12/17 07:38:42;;;;;;;;;12.50;12.00;;;;;;;;5100033;27;45437;-71
2023/12/17 07:41:08;;;;;;;;;21.00;18.75;;;;;;;;5099684;27;46164;-71
2023/12/17 07:43:34;;;;;;;;;18.75;14.00;;;;;;;;5099588;27;45409;-71
2023/12/17 07:45:59;;;;;;;;;18.25;14.00;;;;;;;;5099789;27;45480;-71
2023/12/17 07:48:25;;;;;;;;;16.00;11.75;;;;;;;;5100022;27;45448;-71
2023/12/17 07:50:51;;;;;;;;;54.00;45.75;;;;;;;;5099963;27;45461;-71
2023/12/17 07:53:16;;;;;;;;;29.00;27.25;;;;;;;;5099354;27;45265;-71
2023/12/17 07:55:42;;;;;;;;;33.00;27.25;;;;;;;;5099632;27;45427;-71
2023/12/17 07:58:07;;;;;;;;;26.50;21.75;;;;;;;;5099903;27;45527;-71
2023/12/17 08:00:33;;;;;;;;;15.00;15.00;;;;;;;;5099517;27;46114;-71
2023/12/17 08:02:58;;;;;;;;;47.00;41.25;;;;;;;;5099669;27;45282;-71
2023/12/17 08:05:24;;;;;;;;;41.50;35.25;;;;;;;;5100015;27;45261;-71
2023/12/17 08:07:49;;;;;;;;;25.75;19.75;;;;;;;;5099971;27;45411;-71
2023/12/17 08:10:14;;;;;;;;;20.75;19.00;;;;;;;;5099316;27;45972;-71
2023/12/17 08:12:40;;;;;;;;;26.75;24.75;;;;;;;;5099199;27;45242;-71
2023/12/17 08:15:05;;;;;;;;;71.75;55.75;;;;;;;;5099365;27;45477;-71
2023/12/17 08:17:30;;;;;;;;;103.33;87.67;;;;;;;;5099512;27;45243;-71
2023/12/17 08:19:56;;;;;;;;;91.33;69.67;;;;;;;;5099168;27;46058;-71
2023/12/17 08:22:21;;;;;;;;;107.33;89.00;;;;;;;;5099507;27;45396;-71
2023/12/17 08:24:47;;;;;;;;;100.33;78.33;;;;;;;;5099105;27;45468;-71
2023/12/17 08:27:13;;;;;;;;;84.00;64.00;;;;;;;;5099219;27;45415;-72
2023/12/17 08:29:39;;;;;;;;;73.00;58.50;;;;;;;;5098898;27;46239;-73
2023/12/17 08:32:05;;;;;;;;;57.00;44.25;;;;;;;;5098834;27;45524;-72
2023/12/17 08:34:31;;;;;;;;;36.75;28.00;;;;;;;;5099118;27;45558;-72
2023/12/17 08:36:57;;;;;;;;;35.50;31.50;;;;;;;;5099047;27;45282;-72
2023/12/17 08:39:23;;;;;;;;;23.50;20.25;;;;;;;;5099013;27;45514;-72
2023/12/17 08:41:49;;;;;;;;;16.50;15.50;;;;;;;;5098661;27;45325;-71
2023/12/17 08:44:17;;;;;;;;;19.00;16.00;;;;;;;;5098850;27;45536;-71
2023/12/17 08:46:42;;;;;;;;;22.25;20.25;;;;;;;;5099080;27;45280;-71
2023/12/17 08:49:08;;;;;;;;;26.00;24.25;;;;;;;;5098528;27;45929;-71
2023/12/17 08:51:33;;;;;;;;;22.50;20.75;;;;;;;;5098448;27;45577;-71
2023/12/17 08:53:58;;;;;;;;;55.00;43.50;;;;;;;;5097675;27;45387;-71
2023/12/17 08:56:24;;;;;;;;;37.50;35.25;;;;;;;;5098821;27;45525;-72
2023/12/17 08:58:49;;;;;;;;;29.50;25.50;;;;;;;;5098302;27;46263;-71
2023/12/17 09:01:16;;;;;;;;;31.00;27.50;;;;;;;;5098245;27;45464;-71
2023/12/17 09:03:42;;;;;;;;;32.00;31.00;;;;;;;;5098633;27;45427;-71
2023/12/17 09:06:07;;;;;;;;;46.50;39.75;;;;;;;;5098895;27;45457;-71
2023/12/17 09:08:35;;;;;;;;;41.00;38.50;;;;;;;;5098119;27;45698;-72
2023/12/17 09:11:01;;;;;;;;;31.25;29.25;;;;;;;;5098209;27;45227;-71
2023/12/17 09:13:26;;;;;;;;;24.00;20.50;;;;;;;;5098629;27;45507;-71
2023/12/17 09:15:52;;;;;;;;;21.75;19.25;;;;;;;;5098426;27;45276;-71
2023/12/17 09:18:17;;;;;;;;;15.50;14.00;;;;;;;;5098183;27;45892;-71
2023/12/17 09:20:43;;;;;;;;;23.25;20.50;;;;;;;;5096592;27;45481;-72
2023/12/17 09:23:08;;;;;;;;;27.50;22.25;;;;;;;;5098097;27;45259;-71
2023/12/17 09:25:33;;;;;;;;;30.00;26.25;;;;;;;;5098097;27;45308;-71
2023/12/17 09:27:59;;;;;;;;;29.75;25.00;;;;;;;;5097819;27;45278;-72
2023/12/17 09:30:24;;;;;;;;;25.50;24.25;;;;;;;;5098162;27;45479;-71
2023/12/17 09:32:50;;;;;;;;;23.00;20.50;;;;;;;;5096537;27;45441;-71
2023/12/17 09:35:16;;;;;;;;;22.50;22.50;;;;;;;;5098264;27;45228;-71
2023/12/17 09:37:42;;;;;;;;;20.50;17.50;;;;;;;;5097688;27;45175;-71
2023/12/17 09:40:08;;;;;;;;;25.75;23.50;;;;;;;;5097483;27;45529;-72
2023/12/17 09:42:33;;;;;;;;;23.75;23.50;;;;;;;;5097552;27;45362;-72
2023/12/17 09:44:59;;;;;;;;;26.25;25.00;;;;;;;;5098239;27;45458;-71
2023/12/17 09:47:24;;;;;;;;;31.25;31.00;;;;;;;;5097492;27;45969;-72
2023/12/17 09:49:49;;;;;;;;;30.00;29.00;;;;;;;;5097810;27;45781;-71
2023/12/17 09:52:17;;;;;;;;;24.00;21.75;;;;;;;;5097395;27;45409;-72
2023/12/17 09:54:46;;;;;;;;;29.50;26.50;;;;;;;;5097796;27;45556;-72
2023/12/17 09:57:13;;;;;;;;;34.50;27.50;;;;;;;;5097300;27;45434;-71
2023/12/17 09:59:39;;;;;;;;;33.50;31.25;;;;;;;;5097603;27;46102;-71
2023/12/17 10:02:05;;;;;;;;;45.00;39.00;;;;;;;;5097606;27;45333;-71
2023/12/17 10:04:30;;;;;;;;;37.50;34.75;;;;;;;;5097844;27;45275;-71
2023/12/17 10:06:56;;;;;;;;;33.50;31.00;;;;;;;;5099974;27;45392;-71
2023/12/17 10:09:21;;;;;;;;;23.50;22.50;;;;;;;;5100951;27;45511;-70
2023/12/17 10:11:47;;;;;;;;;21.00;20.00;;;;;;;;5101064;27;45435;-71
2023/12/17 10:14:22;;;;;;;;;17.75;17.25;;;;;;;;5101068;27;45288;-71
2023/12/17 10:16:49;;;;;;;;;19.75;17.75;;;;;;;;5100895;27;46154;-71
2023/12/17 10:19:14;;;;;;;;;15.00;15.00;;;;;;;;5100537;27;45328;-71
2023/12/17 10:21:40;;;;;;;;;13.75;13.00;;;;;;;;5099747;27;45454;-71
2023/12/17 10:24:06;;;;;;;;;14.75;13.75;;;;;;;;5100351;27;45439;-70
2023/12/17 10:26:44;;;;;;;;;17.00;16.50;;;;;;;;5100034;27;45649;-71
2023/12/17 10:29:14;;;;;;;;;15.00;14.00;;;;;;;;5096908;27;45437;-69
2023/12/17 10:31:40;;;;;;;;;19.00;18.25;;;;;;;;5099850;27;45519;-72
2023/12/17 10:34:12;;;;;;;;;17.50;16.00;;;;;;;;5099664;27;45389;-71
2023/12/17 10:36:38;;;;;;;;;22.00;21.00;;;;;;;;5099460;27;45246;-69
2023/12/17 10:39:05;;;;;;;;;14.25;14.00;;;;;;;;5099535;27;45537;-70
2023/12/17 10:41:31;;;;;;;;;6.50;5.50;;;;;;;;5099634;27;45286;-70
2023/12/17 10:43:57;;;;;;;;;9.00;5.50;;;;;;;;5099856;27;45170;-69
2023/12/17 10:46:23;;;;;;;;;15.75;14.50;;;;;;;;5099255;27;45287;-69
2023/12/17 10:48:48;;;;;;;;;21.50;18.00;;;;;;;;5099387;27;45173;-71
2023/12/17 10:51:15;;;;;;;;;22.25;20.25;;;;;;;;5099589;27;45159;-71
2023/12/17 10:53:41;;;;;;;;;18.00;18.00;;;;;;;;5099517;27;46128;-71
2023/12/17 10:56:07;;;;;;;;;12.75;12.25;;;;;;;;5099167;27;46067;-72
2023/12/17 10:58:33;;;;;;;;;10.75;9.50;;;;;;;;5099162;27;45499;-72
2023/12/17 11:00:58;;;;;;;;;5.50;5.25;;;;;;;;5099453;27;45475;-72
2023/12/17 11:03:25;;;;;;;;;11.00;8.75;;;;;;;;5099970;27;45438;-71
2023/12/17 11:05:56;;;;;;;;;15.50;14.00;;;;;;;;5099291;27;46097;-71
2023/12/17 11:08:23;;;;;;;;;15.75;15.00;;;;;;;;5096561;27;45416;-72
2023/12/17 11:10:49;;;;;;;;;13.00;12.00;;;;;;;;5099416;27;45554;-72
2023/12/17 11:13:14;;;;;;;;;11.75;11.25;;;;;;;;5100321;27;45795;-72
2023/12/17 11:15:39;;;;;;;;;13.25;12.25;;;;;;;;5099791;27;45439;-72
2023/12/17 11:18:05;;;;;;;;;10.50;7.25;;;;;;;;5099423;27;45390;-71
2023/12/17 11:20:40;;;;;;;;;9.75;8.50;;;;;;;;5100330;27;45441;-72
2023/12/17 11:23:05;;;;;;;;;7.00;7.00;;;;;;;;5100273;27;45361;-72
2023/12/17 11:25:31;;;;;;;;;5.00;4.50;;;;;;;;5098937;27;45486;-70
2023/12/17 11:27:57;;;;;;;;;4.00;4.00;;;;;;;;5100451;27;45429;-71
2023/12/17 11:30:29;;;;;;;;;7.00;6.00;;;;;;;;5099037;27;45708;-71
2023/12/17 11:32:56;;;;;;;;;3.00;2.33;;;;;;;;5099469;27;45526;-71
2023/12/17 11:35:21;;;;;;;;;4.33;4.33;;;;;;;;5098883;27;45362;-72
2023/12/17 11:37:47;;;;;;;;;6.00;4.00;;;;;;;;5098957;27;45429;-71
2023/12/17 11:40:12;;;;;;;;;4.00;3.33;;;;;;;;5099087;27;45452;-72
2023/12/17 11:42:40;;;;;;;;;8.00;8.00;;;;;;;;5099113;27;45467;-71
2023/12/17 11:45:06;;;;;;;;;7.67;5.00;;;;;;;;5096030;27;46209;-72
2023/12/17 11:47:32;;;;;;;;;6.50;5.00;;;;;;;;5097536;27;45978;-72
2023/12/17 11:49:59;;;;;;;;;10.00;10.00;;;;;;;;5098616;27;45625;-72
2023/12/17 11:52:25;;;;;;;;;8.00;8.00;;;;;;;;5096108;27;45412;-72
2023/12/17 11:54:57;;;;;;;;;6.00;6.00;;;;;;;;5097149;27;46251;-72
2023/12/17 11:57:23;;;;;;;;;8.00;6.75;;;;;;;;5098989;27;45413;-72
2023/12/17 11:59:49;;;;;;;;;8.75;8.25;;;;;;;;5099338;27;45176;-72
2023/12/17 12:02:16;;;;;;;;;10.25;9.00;;;;;;;;5099088;27;45502;-72
2023/12/17 12:04:41;;;;;;;;;9.50;9.50;;;;;;;;5099137;27;45518;-72
2023/12/17 12:07:08;;;;;;;;;13.75;12.00;;;;;;;;5097688;27;45527;-72
2023/12/17 12:09:33;;;;;;;;;12.00;12.00;;;;;;;;5099141;27;45506;-72
2023/12/17 12:11:58;;;;;;;;;14.50;12.50;;;;;;;;5098956;27;45528;-72
2023/12/17 12:14:24;;;;;;;;;11.75;10.00;;;;;;;;5098926;27;45864;-71
2023/12/17 12:16:49;;;;;;;;;10.75;9.75;;;;;;;;5099203;27;45535;-72
2023/12/17 12:19:14;;;;;;;;;17.00;17.00;;;;;;;;5097702;27;45262;-72
2023/12/17 12:21:40;;;;;;;;;18.25;16.25;;;;;;;;5099079;27;45558;-72
2023/12/17 12:24:09;;;;;;;;;10.25;10.25;;;;;;;;5097759;27;45345;-72
2023/12/17 12:26:35;;;;;;;;;9.75;9.00;;;;;;;;5099276;27;45287;-72
2023/12/17 12:29:03;;;;;;;;;5.00;4.67;;;;;;;;5098020;27;45398;-71
2023/12/17 12:31:29;;;;;;;;;4.25;4.25;;;;;;;;5099056;27;45407;-72
2023/12/17 12:33:55;;;;;;;;;6.00;6.00;;;;;;;;5098708;27;45440;-72
2023/12/17 12:36:21;;;;;;;;;7.00;7.00;;;;;;;;5099006;27;45586;-72
2023/12/17 12:39:00;;;;;;;;;6.50;6.00;;;;;;;;5097577;27;45375;-72
2023/12/17 12:41:25;;;;;;;;;4.00;4.00;;;;;;;;5099395;27;45472;-72
2023/12/17 12:43:53;;;;;;;;;8.00;6.67;;;;;;;;5098594;27;46054;-72
2023/12/17 12:46:18;;;;;;;;;11.50;11.50;;;;;;;;5098801;27;45405;-72
2023/12/17 12:48:44;;;;;;;;;7.00;6.33;;;;;;;;5098867;27;45744;-72
2023/12/17 12:51:10;;;;;;;;;0.33;0.00;;;;;;;;5098821;27;45344;-71
2023/12/17 12:53:36;;;;;;;;;5.67;5.00;;;;;;;;5098776;27;46187;-72
2023/12/17 12:56:01;;;;;;;;;5.67;5.00;;;;;;;;5098494;27;45424;-72
2023/12/17 12:58:27;;;;;;;;;10.50;8.75;;;;;;;;5098559;27;45376;-72
2023/12/17 13:00:52;;;;;;;;;7.00;6.00;;;;;;;;5098689;27;45404;-72
2023/12/17 13:03:18;;;;;;;;;4.00;4.00;;;;;;;;5098708;27;45463;-72
2023/12/17 13:05:43;;;;;;;;;5.00;5.00;;;;;;;;5098470;27;45400;-72
2023/12/17 13:08:09;;;;;;;;;4.33;4.00;;;;;;;;5098691;27;45412;-72
2023/12/17 13:10:34;;;;;;;;;6.33;5.67;;;;;;;;5098852;27;45213;-72
2023/12/17 13:13:00;;;;;;;;;4.33;3.33;;;;;;;;5098079;27;45490;-72
2023/12/17 13:15:25;;;;;;;;;7.00;5.00;;;;;;;;5098131;27;45336;-72
2023/12/17 13:17:51;;;;;;;;;6.33;5.67;;;;;;;;5098393;27;45264;-72
2023/12/17 13:20:16;;;;;;;;;7.00;6.33;;;;;;;;5098363;27;45285;-72
2023/12/17 13:22:42;;;;;;;;;8.00;7.00;;;;;;;;5098032;27;45916;-72
2023/12/17 13:25:10;;;;;;;;;7.00;5.67;;;;;;;;5098385;27;45422;-72
2023/12/17 13:27:36;;;;;;;;;5.00;4.33;;;;;;;;5098370;27;45320;-71
2023/12/17 13:30:02;;;;;;;;;5.33;5.00;;;;;;;;5098244;27;45407;-72
2023/12/17 13:32:27;;;;;;;;;11.25;11.00;;;;;;;;5097619;27;46165;-71
2023/12/17 13:34:53;;;;;;;;;7.00;7.00;;;;;;;;5098899;27;45285;-72
2023/12/17 13:37:18;;;;;;;;;6.00;5.00;;;;;;;;5098320;27;45510;-71
2023/12/17 13:39:44;;;;;;;;;7.00;7.00;;;;;;;;5097963;27;45367;-71
2023/12/17 13:42:10;;;;;;;;;5.00;5.00;;;;;;;;5098110;27;45463;-71
2023/12/17 13:44:35;;;;;;;;;4.33;3.67;;;;;;;;5097301;27;45474;-71
2023/12/17 13:47:01;;;;;;;;;5.67;5.67;;;;;;;;5096354;27;45365;-71
2023/12/17 13:49:26;;;;;;;;;5.00;5.00;;;;;;;;5097905;27;45351;-71
2023/12/17 13:51:52;;;;;;;;;4.00;4.00;;;;;;;;5097505;27;45495;-71
2023/12/17 13:54:18;;;;;;;;;5.00;5.00;;;;;;;;5097756;27;45207;-72
2023/12/17 13:56:43;;;;;;;;;8.67;8.00;;;;;;;;5096241;27;45468;-72
2023/12/17 13:59:09;;;;;;;;;5.67;5.00;;;;;;;;5098061;27;45328;-71
2023/12/17 14:01:34;;;;;;;;;5.33;4.67;;;;;;;;5097278;27;45256;-71
2023/12/17 14:04:00;;;;;;;;;7.67;6.67;;;;;;;;5097553;27;45539;-71
2023/12/17 14:06:25;;;;;;;;;5.00;5.00;;;;;;;;5097546;27;45164;-71
2023/12/17 14:08:51;;;;;;;;;6.67;6.00;;;;;;;;5097847;27;45554;-72
2023/12/17 14:11:17;;;;;;;;;4.00;4.00;;;;;;;;5096976;27;46149;-72
2023/12/17 14:13:42;;;;;;;;;4.00;3.67;;;;;;;;5097775;27;45297;-72
2023/12/17 14:16:11;;;;;;;;;8.00;8.00;;;;;;;;5097519;27;45481;-71
2023/12/17 14:18:40;;;;;;;;;8.33;7.67;;;;;;;;5097477;27;45388;-72
2023/12/17 14:21:06;;;;;;;;;4.00;4.00;;;;;;;;5097181;27;45350;-71
2023/12/17 14:23:31;;;;;;;;;6.00;6.00;;;;;;;;5097261;27;45519;-71